CWUW

Dewar Lakes Airport

Canada
METAR CWUW 190308Z AUTO 19006KT ////SM //// OVC003 M04/M04 A3005
Observed Flight Rules
Sep-19 @ 03:08 UTC (22 minutes ago)
Wind Clouds
190° at 6 knots
  • Overcast at 300' AGL
Temperatures Readings
Current -4°C / 25°F
Dewpoint -4°C / 25°F
Humidity 100%
Altimeter 30.05" Hg
Pressure 1018 hPa
Elevation 527
METAR CWUW 190308Z AUTO 19006KT ////SM //// OVC003 M04/M04 A3005
Observed Flight Rules
Sep-19 @ 03:08 UTC
(22 minutes ago)
Wind
190° at 6 knots
Clouds
  • Overcast at 300' AGL
Temperature Dewpoint
-4°C / 25°F -4°C / 25°F
Humidity Altimeter Pressure
100% 30.05" Hg 1018 hPa